createdAt,value
2023-04-19T00:02:26.583Z,4.50
2023-04-19T00:04:55.669Z,5.67
2023-04-19T00:07:23.586Z,5.20
2023-04-19T00:09:51.293Z,5.30
2023-04-19T00:12:19.000Z,5.33
2023-04-19T00:14:46.779Z,5.17
2023-04-19T00:17:14.466Z,6.37
2023-04-19T00:19:44.453Z,5.20
2023-04-19T00:22:12.234Z,5.57
2023-04-19T00:24:40.142Z,6.20
2023-04-19T00:27:07.929Z,5.90
2023-04-19T00:29:35.773Z,5.37
2023-04-19T00:32:05.812Z,5.97
2023-04-19T00:34:33.573Z,5.70
2023-04-19T00:37:05.116Z,5.50
2023-04-19T00:39:32.858Z,5.53
2023-04-19T00:42:01.297Z,4.93
2023-04-19T00:44:29.151Z,5.70
2023-04-19T00:46:57.913Z,5.33
2023-04-19T00:49:26.015Z,5.97
2023-04-19T00:51:53.772Z,5.73
2023-04-19T00:54:24.822Z,4.83
2023-04-19T00:56:52.754Z,4.93
2023-04-19T00:59:20.522Z,4.60
2023-04-19T01:01:48.686Z,3.60
2023-04-19T01:04:17.480Z,3.97
2023-04-19T01:06:45.807Z,4.00
2023-04-19T01:09:13.576Z,3.63
2023-04-19T01:11:43.605Z,3.87
2023-04-19T01:14:11.745Z,3.10
2023-04-19T01:16:39.964Z,3.20
2023-04-19T01:19:07.775Z,3.53
2023-04-19T01:21:38.259Z,3.33
2023-04-19T01:24:08.126Z,3.73
2023-04-19T01:26:35.905Z,3.80
2023-04-19T01:29:03.635Z,4.27
2023-04-19T01:31:31.381Z,4.00
2023-04-19T01:33:59.277Z,3.70
2023-04-19T01:36:27.727Z,4.33
2023-04-19T01:38:55.473Z,4.50
2023-04-19T01:41:27.046Z,3.67
2023-04-19T01:43:55.052Z,4.57
2023-04-19T01:46:22.784Z,4.07
2023-04-19T01:48:50.596Z,4.53
2023-04-19T01:51:18.368Z,3.73
2023-04-19T01:53:46.078Z,3.73
2023-04-19T01:56:13.771Z,4.03
2023-04-19T01:58:42.797Z,3.77
2023-04-19T02:01:12.657Z,3.47
2023-04-19T02:03:40.755Z,3.03
2023-04-19T02:06:12.422Z,3.50
2023-04-19T02:08:40.200Z,4.03
2023-04-19T02:11:08.978Z,3.70
2023-04-19T02:13:37.273Z,3.97
2023-04-19T02:16:07.073Z,3.63
2023-04-19T02:18:38.311Z,3.50
2023-04-19T02:21:07.126Z,4.20
2023-04-19T02:23:35.441Z,4.27
2023-04-19T02:26:03.537Z,3.90
2023-04-19T02:28:31.592Z,3.50
2023-04-19T02:30:59.567Z,4.23
2023-04-19T02:33:29.077Z,3.20
2023-04-19T02:35:56.780Z,4.07
2023-04-19T02:38:24.506Z,3.33
2023-04-19T02:40:52.253Z,3.93
2023-04-19T02:43:19.966Z,4.07
2023-04-19T02:45:47.697Z,3.80
2023-04-19T02:48:15.477Z,4.17
2023-04-19T02:50:44.520Z,3.20
2023-04-19T02:53:12.233Z,3.60
2023-04-19T02:55:40.501Z,3.40
2023-04-19T02:58:08.362Z,4.10
2023-04-19T03:00:36.122Z,3.60
2023-04-19T03:03:04.668Z,5.00
2023-04-19T03:05:32.541Z,3.07
2023-04-19T03:08:01.761Z,4.47
2023-04-19T03:10:29.493Z,3.77
2023-04-19T03:12:57.214Z,3.70
2023-04-19T03:15:24.965Z,3.73
2023-04-19T03:17:52.678Z,4.10
2023-04-19T03:20:20.957Z,4.67
2023-04-19T03:22:49.222Z,4.40
2023-04-19T03:25:18.357Z,4.10
2023-04-19T03:27:47.969Z,4.17
2023-04-19T03:30:15.940Z,4.70
2023-04-19T03:32:43.703Z,4.20
2023-04-19T03:35:11.651Z,4.57
2023-04-19T03:37:39.366Z,3.97
2023-04-19T03:40:08.484Z,4.13
2023-04-19T03:42:37.555Z,4.10
2023-04-19T03:45:06.034Z,4.07
2023-04-19T03:47:33.754Z,4.40
2023-04-19T03:50:01.594Z,4.73
2023-04-19T03:52:29.372Z,3.93
2023-04-19T03:54:57.121Z,3.87
2023-04-19T03:57:24.859Z,4.20
2023-04-19T03:59:53.941Z,4.00
2023-04-19T04:02:21.759Z,4.47
2023-04-19T04:04:54.894Z,4.73
2023-04-19T04:07:23.120Z,3.70
2023-04-19T04:09:51.110Z,4.60
2023-04-19T04:12:18.830Z,4.37
2023-04-19T04:14:46.558Z,3.97
2023-04-19T04:17:18.157Z,4.47
2023-04-19T04:19:45.917Z,4.37
2023-04-19T04:22:13.642Z,4.77
2023-04-19T04:24:42.852Z,4.27
2023-04-19T04:27:13.482Z,4.80
2023-04-19T04:29:43.862Z,4.03
2023-04-19T04:32:13.656Z,4.17
2023-04-19T04:34:43.432Z,3.87
2023-04-19T04:37:11.743Z,4.83
2023-04-19T04:39:40.071Z,4.30
2023-04-19T04:42:08.926Z,4.00
2023-04-19T04:44:37.281Z,5.00
2023-04-19T04:47:05.177Z,4.30
2023-04-19T04:49:32.902Z,4.60
2023-04-19T04:52:01.976Z,4.50
2023-04-19T04:54:29.697Z,4.07
2023-04-19T04:56:57.446Z,2.90
2023-04-19T04:59:25.202Z,4.87
2023-04-19T05:01:52.939Z,3.77
2023-04-19T05:04:20.966Z,3.70
2023-04-19T05:06:48.751Z,3.40
2023-04-19T05:09:17.851Z,4.30
2023-04-19T05:11:45.765Z,3.53
2023-04-19T05:14:13.760Z,4.03
2023-04-19T05:16:41.754Z,4.20
2023-04-19T05:19:09.454Z,3.20
2023-04-19T05:21:37.159Z,3.50
2023-04-19T05:24:05.687Z,4.70
2023-04-19T05:26:34.763Z,3.53
2023-04-19T05:29:02.539Z,3.47
2023-04-19T05:31:30.398Z,3.77
2023-04-19T05:33:58.195Z,3.60
2023-04-19T05:36:26.835Z,2.67
2023-04-19T05:38:54.597Z,3.27
2023-04-19T05:41:22.435Z,3.20
2023-04-19T05:43:51.539Z,3.80
2023-04-19T05:46:19.265Z,3.00
2023-04-19T05:48:47.374Z,3.23
2023-04-19T05:51:17.346Z,3.70
2023-04-19T05:53:46.033Z,3.30
2023-04-19T05:56:13.854Z,3.30
2023-04-19T05:58:41.640Z,3.00
2023-04-19T06:01:10.879Z,3.10
2023-04-19T06:03:38.989Z,3.27
2023-04-19T06:06:07.130Z,3.37
2023-04-19T06:08:34.927Z,3.67
2023-04-19T06:11:11.942Z,4.10
2023-04-19T06:13:51.392Z,3.70
2023-04-19T06:16:20.649Z,3.07
2023-04-19T06:18:48.474Z,3.30
2023-04-19T06:21:16.923Z,3.20
2023-04-19T06:23:44.611Z,3.00
2023-04-19T06:26:12.354Z,3.10
2023-04-19T06:28:40.052Z,3.30
2023-04-19T06:31:07.792Z,2.93
2023-04-19T06:33:37.003Z,2.40
2023-04-19T06:36:05.377Z,3.47
2023-04-19T06:38:33.276Z,3.83
2023-04-19T06:41:01.062Z,3.43
2023-04-19T06:43:28.769Z,4.13
2023-04-19T06:45:59.623Z,3.43
2023-04-19T06:48:27.716Z,3.70
2023-04-19T06:50:56.741Z,3.27
2023-04-19T06:53:24.739Z,2.77
2023-04-19T06:55:58.545Z,2.83
2023-04-19T06:58:26.262Z,2.70
2023-04-19T07:00:54.138Z,2.43
2023-04-19T07:03:22.185Z,3.00
2023-04-19T07:05:56.109Z,2.67
2023-04-19T07:08:32.262Z,3.00
2023-04-19T07:11:06.993Z,2.70
2023-04-19T07:13:34.794Z,3.50
2023-04-19T07:16:05.544Z,3.00
2023-04-19T07:18:33.499Z,2.27
2023-04-19T07:21:01.319Z,2.57
2023-04-19T07:23:30.923Z,2.53
2023-04-19T07:25:58.661Z,2.80
2023-04-19T07:28:26.652Z,2.97
2023-04-19T07:30:54.360Z,2.75
2023-04-19T07:33:23.252Z,2.93
2023-04-19T07:35:59.419Z,2.60
2023-04-19T07:38:27.235Z,2.87
2023-04-19T07:40:56.279Z,2.80
2023-04-19T07:43:23.995Z,2.33
2023-04-19T07:45:51.831Z,2.80
2023-04-19T07:48:19.675Z,2.90
2023-04-19T07:50:47.389Z,2.87
2023-04-19T07:53:15.356Z,3.17
2023-04-19T07:55:43.062Z,2.90
2023-04-19T07:58:12.310Z,3.57
2023-04-19T08:00:40.114Z,3.33
2023-04-19T08:03:08.120Z,3.60
2023-04-19T08:05:36.207Z,2.70
2023-04-19T08:08:04.062Z,3.03
2023-04-19T08:10:32.011Z,2.87
2023-04-19T08:13:05.636Z,3.40
2023-04-19T08:18:07.225Z,2.67
2023-04-19T08:20:35.262Z,2.90
2023-04-19T08:23:13.959Z,3.07
2023-04-19T08:25:46.221Z,2.80
2023-04-19T08:28:13.950Z,3.23
2023-04-19T08:30:43.073Z,2.77
2023-04-19T08:33:11.696Z,2.85
2023-04-19T08:35:40.880Z,3.93
2023-04-19T08:38:08.618Z,3.13
2023-04-19T08:40:36.783Z,3.00
2023-04-19T08:43:06.915Z,2.90
2023-04-19T08:45:35.372Z,3.57
2023-04-19T08:48:06.337Z,3.20
2023-04-19T08:50:45.645Z,3.40
2023-04-19T08:53:25.347Z,2.87
2023-04-19T08:56:08.619Z,3.00
2023-04-19T08:58:57.822Z,2.80
2023-04-19T09:01:35.548Z,2.73
2023-04-19T09:04:27.127Z,2.93
2023-04-19T09:06:55.875Z,3.30
2023-04-19T09:11:57.324Z,2.57
2023-04-19T09:14:27.578Z,2.80
2023-04-19T09:16:55.682Z,3.20
2023-04-19T09:19:25.581Z,3.40
2023-04-19T09:21:54.747Z,3.20
2023-04-19T09:27:12.132Z,3.00
2023-04-19T09:29:40.273Z,2.67
2023-04-19T09:32:08.011Z,2.73
2023-04-19T09:34:37.126Z,3.40
2023-04-19T09:37:20.821Z,3.30
2023-04-19T09:39:56.057Z,2.50
2023-04-19T09:42:47.281Z,2.80
2023-04-19T09:45:29.054Z,3.43
2023-04-19T09:48:07.467Z,2.80
2023-04-19T09:50:50.505Z,3.37
2023-04-19T09:53:22.922Z,3.50
2023-04-19T09:56:01.567Z,3.53
2023-04-19T09:58:46.277Z,2.80
2023-04-19T10:01:21.930Z,2.63
2023-04-19T10:03:51.591Z,2.90
2023-04-19T10:08:54.920Z,2.90
2023-04-19T10:11:23.592Z,2.47
2023-04-19T10:13:55.966Z,3.17
2023-04-19T10:16:24.006Z,3.17
2023-04-19T10:18:52.732Z,2.83
2023-04-19T10:21:22.724Z,3.10
2023-04-19T10:23:51.089Z,2.73
2023-04-19T10:26:18.920Z,2.40
2023-04-19T10:28:48.273Z,2.70
2023-04-19T10:31:16.222Z,2.43
2023-04-19T10:33:44.141Z,2.50
2023-04-19T10:36:15.722Z,2.03
2023-04-19T10:38:47.835Z,2.57
2023-04-19T10:41:17.466Z,2.90
2023-04-19T10:43:47.639Z,2.30
2023-04-19T10:46:17.802Z,2.70
2023-04-19T10:48:54.486Z,3.10
2023-04-19T10:51:24.281Z,2.67
2023-04-19T10:53:56.150Z,2.87
2023-04-19T10:57:11.800Z,2.40
2023-04-19T10:59:42.889Z,2.40
2023-04-19T11:02:29.139Z,3.10
2023-04-19T11:05:02.198Z,3.27
2023-04-19T11:07:30.527Z,2.23
2023-04-19T11:09:59.801Z,2.60
2023-04-19T11:12:28.056Z,3.17
2023-04-19T11:14:59.758Z,2.80
2023-04-19T11:17:31.412Z,2.73
2023-04-19T11:20:00.954Z,2.60
2023-04-19T11:22:33.322Z,3.37
2023-04-19T11:25:10.118Z,2.70
2023-04-19T11:27:38.620Z,2.93
2023-04-19T11:30:08.294Z,2.30
2023-04-19T11:32:36.470Z,2.50
2023-04-19T11:35:09.804Z,2.30
2023-04-19T11:37:40.212Z,2.83
2023-04-19T11:40:10.435Z,3.10
2023-04-19T11:42:38.215Z,2.30
2023-04-19T11:45:13.189Z,1.90
2023-04-19T11:47:50.144Z,2.80
2023-04-19T11:50:35.451Z,2.17
2023-04-19T11:53:12.369Z,2.17
2023-04-19T11:55:44.198Z,2.17
2023-04-19T11:58:25.037Z,2.40
2023-04-19T12:00:52.809Z,2.40
2023-04-19T12:03:26.194Z,2.80
2023-04-19T12:05:55.700Z,2.50
2023-04-19T12:08:34.252Z,2.60
2023-04-19T12:11:04.397Z,2.50
2023-04-19T12:13:33.245Z,2.77
2023-04-19T12:16:01.759Z,2.23
2023-04-19T12:18:29.709Z,2.67
2023-04-19T12:20:58.308Z,2.40
2023-04-19T12:23:27.777Z,3.03
2023-04-19T12:25:55.582Z,2.10
2023-04-19T12:28:24.620Z,2.40
2023-04-19T12:30:53.018Z,2.97
2023-04-19T12:33:23.731Z,2.60
2023-04-19T12:35:51.724Z,2.50
2023-04-19T12:38:19.412Z,2.30
2023-04-19T12:40:47.241Z,2.50
2023-04-19T12:43:14.946Z,2.70
2023-04-19T12:45:44.025Z,2.50
2023-04-19T12:48:11.758Z,2.43
2023-04-19T12:50:39.464Z,2.70
2023-04-19T12:53:08.092Z,2.50
2023-04-19T12:55:35.797Z,2.47
2023-04-19T12:58:03.544Z,2.60
2023-04-19T13:00:31.333Z,2.20
2023-04-19T13:03:00.498Z,3.07
2023-04-19T13:05:28.274Z,2.27
2023-04-19T13:07:56.441Z,2.27
2023-04-19T13:10:24.215Z,2.67
2023-04-19T13:12:51.914Z,2.40
2023-04-19T13:15:19.792Z,2.23
2023-04-19T13:17:47.553Z,2.90
2023-04-19T13:20:16.814Z,2.70
2023-04-19T13:22:44.489Z,3.00
2023-04-19T13:25:12.242Z,2.20
2023-04-19T13:27:40.375Z,2.80
2023-04-19T13:30:09.517Z,3.00
2023-04-19T13:32:37.272Z,3.22
2023-04-19T13:35:05.274Z,3.33
2023-04-19T13:37:34.469Z,3.07
2023-04-19T13:40:17.443Z,3.50
2023-04-19T13:42:46.709Z,4.33
2023-04-19T13:45:14.567Z,3.53
2023-04-19T13:47:42.302Z,3.10
2023-04-19T13:50:10.545Z,2.50
2023-04-19T13:52:39.650Z,3.43
2023-04-19T13:55:07.756Z,3.30
2023-04-19T13:57:35.502Z,3.40
2023-04-19T14:00:03.783Z,3.30
2023-04-19T14:02:31.722Z,3.20
2023-04-19T14:04:59.700Z,2.87
2023-04-19T14:07:27.634Z,3.20
2023-04-19T14:09:56.682Z,3.20
2023-04-19T14:12:24.467Z,3.47
2023-04-19T14:14:52.231Z,3.10
2023-04-19T14:17:19.915Z,3.57
2023-04-19T14:19:47.623Z,3.00
2023-04-19T14:22:17.037Z,3.20
2023-04-19T14:24:45.850Z,3.07
2023-04-19T14:27:14.957Z,3.07
2023-04-19T14:29:42.733Z,3.67
2023-04-19T14:32:24.060Z,3.07
2023-04-19T14:34:53.964Z,3.60
2023-04-19T14:37:23.517Z,2.87
2023-04-19T14:39:51.397Z,3.60
2023-04-19T14:42:22.607Z,3.03
2023-04-19T14:44:52.376Z,3.20
2023-04-19T14:47:20.553Z,3.30
2023-04-19T14:49:48.360Z,3.53
2023-04-19T14:52:16.300Z,3.50
2023-04-19T14:54:44.050Z,3.10
2023-04-19T14:57:12.058Z,3.53
2023-04-19T14:59:41.206Z,3.50
2023-04-19T15:02:10.600Z,3.47
2023-04-19T15:04:40.981Z,2.90
2023-04-19T15:07:09.348Z,4.40
2023-04-19T15:09:37.083Z,3.10
2023-04-19T15:12:05.794Z,3.40
2023-04-19T15:14:33.566Z,3.80
2023-04-19T15:17:02.991Z,3.50
2023-04-19T15:19:31.172Z,3.80
2023-04-19T15:21:58.899Z,2.90
2023-04-19T15:24:26.737Z,3.33
2023-04-19T15:26:54.429Z,3.40
2023-04-19T15:29:22.121Z,3.33
2023-04-19T15:31:49.937Z,3.30
2023-04-19T15:34:19.147Z,3.30
2023-04-19T15:36:46.891Z,3.00
2023-04-19T15:39:14.830Z,3.63
2023-04-19T15:41:42.695Z,3.83
2023-04-19T15:44:10.412Z,3.57
2023-04-19T15:46:38.277Z,3.00
2023-04-19T15:49:06.082Z,3.47
2023-04-19T15:51:35.308Z,3.17
2023-04-19T15:54:03.795Z,4.07
2023-04-19T15:56:31.525Z,3.50
2023-04-19T15:58:59.247Z,3.40
2023-04-19T16:01:27.011Z,3.43
2023-04-19T16:03:54.965Z,3.50
2023-04-19T16:06:23.282Z,3.27
2023-04-19T16:08:52.388Z,3.80
2023-04-19T16:11:20.196Z,4.20
2023-04-19T16:13:48.494Z,3.50
2023-04-19T16:16:16.394Z,3.40
2023-04-19T16:18:44.159Z,3.80
2023-04-19T16:21:11.861Z,3.87
2023-04-19T16:23:39.551Z,4.27
2023-04-19T16:26:08.864Z,4.10
2023-04-19T16:28:36.597Z,3.73
2023-04-19T16:31:04.319Z,4.20
2023-04-19T16:33:32.138Z,4.20
2023-04-19T16:35:59.947Z,3.70
2023-04-19T16:38:27.661Z,3.63
2023-04-19T16:40:55.743Z,3.77
2023-04-19T16:43:24.887Z,4.07
2023-04-19T16:45:53.670Z,5.13
2023-04-19T16:48:21.399Z,3.47
2023-04-19T16:50:50.584Z,3.93
2023-04-19T16:53:18.537Z,4.03
2023-04-19T16:55:46.257Z,3.53
2023-04-19T16:58:14.987Z,4.13
2023-04-19T17:00:44.114Z,4.10
2023-04-19T17:03:12.215Z,3.57
2023-04-19T17:05:39.998Z,3.77
2023-04-19T17:08:07.751Z,3.47
2023-04-19T17:10:35.553Z,3.63
2023-04-19T17:13:03.250Z,4.40
2023-04-19T17:15:31.500Z,3.70
2023-04-19T17:18:00.712Z,4.47
2023-04-19T17:20:28.505Z,4.17
2023-04-19T17:22:56.194Z,3.77
2023-04-19T17:25:24.213Z,4.10
2023-04-19T17:27:52.025Z,4.20
2023-04-19T17:30:19.858Z,4.10
2023-04-19T17:32:47.573Z,4.77
2023-04-19T17:35:16.828Z,4.13
2023-04-19T17:37:44.592Z,4.10
2023-04-19T17:40:13.135Z,4.90
2023-04-19T17:42:40.844Z,3.23
2023-04-19T17:45:11.153Z,4.33
2023-04-19T17:47:39.287Z,4.77
2023-04-19T17:50:08.700Z,4.50
2023-04-19T17:52:37.891Z,4.33
2023-04-19T17:55:07.143Z,3.40
2023-04-19T17:57:35.205Z,3.97
2023-04-19T18:00:07.329Z,3.40
2023-04-19T18:02:35.419Z,3.13
2023-04-19T18:05:03.622Z,3.50
2023-04-19T18:07:31.527Z,2.87
2023-04-19T18:10:00.656Z,3.23
2023-04-19T18:12:28.486Z,2.73
2023-04-19T18:14:56.214Z,3.40
2023-04-19T18:17:23.960Z,3.50
2023-04-19T18:19:51.705Z,3.40
2023-04-19T18:22:19.506Z,2.97
2023-04-19T18:24:47.382Z,3.23
2023-04-19T18:27:16.490Z,3.50
2023-04-19T18:29:44.231Z,3.10
2023-04-19T18:32:12.084Z,3.47
2023-04-19T18:34:39.824Z,3.30
2023-04-19T18:37:16.108Z,3.37
2023-04-19T18:39:43.951Z,3.60
2023-04-19T18:42:11.780Z,3.13
2023-04-19T18:47:14.614Z,4.03
2023-04-19T18:49:46.155Z,3.80
2023-04-19T18:52:25.822Z,3.50
2023-04-19T18:54:56.184Z,3.40
2023-04-19T18:57:27.143Z,3.73
2023-04-19T18:59:57.925Z,3.30
2023-04-19T19:02:27.410Z,3.70
2023-04-19T19:05:01.016Z,3.83
2023-04-19T19:10:02.484Z,3.60
2023-04-19T19:12:37.230Z,3.60
2023-04-19T19:15:07.930Z,3.80
2023-04-19T19:17:35.969Z,3.57
2023-04-19T19:20:05.652Z,3.50
2023-04-19T19:22:34.122Z,4.10
2023-04-19T19:25:02.037Z,3.70
2023-04-19T19:27:29.816Z,3.73
2023-04-19T19:29:58.724Z,4.00
2023-04-19T19:32:27.997Z,3.30
2023-04-19T19:35:02.192Z,4.13
2023-04-19T19:37:31.669Z,5.27
2023-04-19T19:40:04.218Z,4.83
2023-04-19T19:42:34.348Z,5.10
2023-04-19T19:45:03.205Z,4.70
2023-04-19T19:47:35.150Z,4.50
2023-04-19T19:52:35.889Z,5.00
2023-04-19T19:55:03.662Z,5.60
2023-04-19T20:00:22.956Z,5.40
2023-04-19T20:02:56.139Z,6.73
2023-04-19T20:05:25.244Z,9.20
2023-04-19T20:08:01.553Z,6.17
2023-04-19T20:10:30.821Z,5.87
2023-04-19T20:12:58.619Z,6.97
2023-04-19T20:15:26.497Z,6.13
2023-04-19T20:17:55.573Z,5.83
2023-04-19T20:20:23.508Z,5.53
2023-04-19T20:22:51.262Z,6.13
2023-04-19T20:25:18.990Z,6.37
2023-04-19T20:27:46.728Z,6.00
2023-04-19T20:30:14.949Z,6.23
2023-04-19T20:32:43.179Z,6.43
2023-04-19T20:35:12.856Z,6.40
2023-04-19T20:37:41.141Z,5.57
2023-04-19T20:40:12.056Z,5.50
2023-04-19T20:42:40.165Z,5.60
2023-04-19T20:45:10.699Z,6.27
2023-04-19T20:47:38.859Z,5.33
2023-04-19T20:50:07.506Z,5.80
2023-04-19T20:52:36.614Z,6.07
2023-04-19T20:55:04.797Z,6.23
2023-04-19T20:57:32.839Z,5.60
2023-04-19T21:00:00.652Z,7.47
2023-04-19T21:02:28.936Z,6.20
2023-04-19T21:04:56.785Z,5.57
2023-04-19T21:07:24.602Z,5.20
2023-04-19T21:09:53.846Z,6.30
2023-04-19T21:12:21.623Z,5.67
2023-04-19T21:14:50.908Z,5.60
2023-04-19T21:17:18.683Z,6.23
2023-04-19T21:19:46.558Z,6.00
2023-04-19T21:22:14.360Z,6.27
2023-04-19T21:24:42.034Z,5.90
2023-04-19T21:27:11.117Z,5.97
2023-04-19T21:29:38.801Z,5.30
2023-04-19T21:32:06.750Z,5.60
2023-04-19T21:34:35.149Z,5.93
2023-04-19T21:37:03.254Z,5.13
2023-04-19T21:39:30.988Z,5.17
2023-04-19T21:41:58.806Z,5.20
2023-04-19T21:44:27.933Z,5.37
2023-04-19T21:46:55.922Z,5.00
2023-04-19T21:49:23.681Z,5.97
2023-04-19T21:51:52.672Z,4.80
2023-04-19T21:54:32.838Z,5.10
2023-04-19T21:57:02.081Z,5.40
2023-04-19T21:59:31.440Z,5.20
2023-04-19T22:01:59.848Z,4.83
2023-04-19T22:04:31.095Z,5.63
2023-04-19T22:07:01.910Z,5.53
2023-04-19T22:09:30.259Z,5.67
2023-04-19T22:11:58.230Z,5.13
2023-04-19T22:14:26.065Z,4.50
2023-04-19T22:16:56.400Z,4.80
2023-04-19T22:19:24.760Z,5.55
2023-04-19T22:21:55.598Z,4.87
2023-04-19T22:24:23.569Z,5.00
2023-04-19T22:26:52.998Z,4.20
2023-04-19T22:29:21.133Z,5.37
2023-04-19T22:31:48.944Z,4.90
2023-04-19T22:34:18.157Z,4.90
2023-04-19T22:36:46.114Z,5.27
2023-04-19T22:39:13.977Z,5.30
2023-04-19T22:41:41.702Z,4.53
2023-04-19T22:44:09.448Z,5.10
2023-04-19T22:46:38.061Z,5.30
2023-04-19T22:49:09.945Z,5.10
2023-04-19T22:51:39.427Z,4.77
2023-04-19T22:54:07.239Z,5.40
2023-04-19T22:56:34.915Z,5.23
2023-04-19T22:59:02.647Z,5.40
2023-04-19T23:01:30.434Z,6.33
2023-04-19T23:03:58.357Z,6.50
2023-04-19T23:06:26.141Z,5.80
2023-04-19T23:08:56.194Z,6.20
2023-04-19T23:11:25.067Z,6.07
2023-04-19T23:13:53.935Z,6.07
2023-04-19T23:16:22.467Z,6.40
2023-04-19T23:18:50.417Z,7.18
2023-04-19T23:21:18.235Z,7.20
2023-04-19T23:23:45.965Z,5.70
2023-04-19T23:26:15.011Z,6.00
2023-04-19T23:28:42.898Z,6.57
2023-04-19T23:31:11.598Z,6.90
2023-04-19T23:33:39.421Z,5.23
2023-04-19T23:36:07.422Z,6.00
2023-04-19T23:38:35.182Z,5.53
2023-04-19T23:41:02.882Z,5.70
2023-04-19T23:43:31.938Z,6.60
2023-04-19T23:45:59.667Z,6.67
2023-04-19T23:48:27.401Z,5.37
2023-04-19T23:50:55.166Z,5.43
2023-04-19T23:53:22.878Z,6.20
2023-04-19T23:55:50.799Z,6.10
2023-04-19T23:58:18.561Z,5.40
